createdAt,value
2018-05-23T00:00:39.455Z,15.04
2018-05-23T00:03:06.907Z,15.15
2018-05-23T00:05:34.350Z,15.08
2018-05-23T00:08:01.781Z,14.91
2018-05-23T00:10:29.231Z,14.95
2018-05-23T00:12:56.667Z,14.97
2018-05-23T00:15:24.111Z,14.86
2018-05-23T00:17:51.545Z,14.84
2018-05-23T00:20:19.004Z,14.92
2018-05-23T00:22:46.476Z,14.78
2018-05-23T00:25:15.954Z,14.76
2018-05-23T00:27:43.371Z,14.72
2018-05-23T00:30:10.825Z,14.91
2018-05-23T00:32:38.242Z,14.91
2018-05-23T00:35:06.636Z,14.74
2018-05-23T00:37:34.076Z,14.70
2018-05-23T00:40:02.457Z,14.67
2018-05-23T00:42:29.983Z,14.69
2018-05-23T00:44:57.426Z,14.67
2018-05-23T00:47:24.850Z,14.71
2018-05-23T00:49:52.313Z,14.66
2018-05-23T00:52:19.742Z,14.63
2018-05-23T00:54:58.772Z,14.55
2018-05-23T00:57:26.255Z,14.61
2018-05-23T00:59:53.693Z,14.59
2018-05-23T01:02:21.151Z,14.42
2018-05-23T01:04:48.580Z,14.37
2018-05-23T01:07:17.024Z,14.37
2018-05-23T01:09:44.445Z,14.31
2018-05-23T01:12:12.846Z,14.23
2018-05-23T01:14:42.172Z,14.21
2018-05-23T01:17:09.622Z,14.24
2018-05-23T01:19:37.056Z,14.27
2018-05-23T01:22:04.511Z,14.28
2018-05-23T01:24:31.926Z,14.33
2018-05-23T01:27:00.137Z,14.24
2018-05-23T01:29:28.275Z,14.31
2018-05-23T01:31:55.704Z,14.36
2018-05-23T01:34:23.157Z,14.31
2018-05-23T01:36:50.592Z,14.22
2018-05-23T01:39:18.043Z,14.27
2018-05-23T01:41:46.430Z,14.24
2018-05-23T01:44:13.882Z,14.25
2018-05-23T01:46:41.323Z,14.24
2018-05-23T01:49:20.570Z,14.30
2018-05-23T01:51:48.798Z,14.28
2018-05-23T01:54:16.269Z,14.19
2018-05-23T01:56:43.689Z,14.25
2018-05-23T01:59:11.202Z,14.21
2018-05-23T02:01:38.569Z,14.20
2018-05-23T02:04:06.034Z,14.05
2018-05-23T02:06:33.472Z,14.07
2018-05-23T02:09:00.927Z,14.01
2018-05-23T02:11:28.368Z,14.03
2018-05-23T02:13:55.840Z,13.88
2018-05-23T02:16:23.930Z,13.90
2018-05-23T02:18:51.390Z,13.93
2018-05-23T02:21:18.830Z,13.82
2018-05-23T02:23:47.254Z,13.67
2018-05-23T02:26:14.706Z,13.72
2018-05-23T02:28:42.130Z,13.66
2018-05-23T02:31:09.599Z,13.55
2018-05-23T02:33:37.036Z,13.44
2018-05-23T02:36:04.495Z,13.35
2018-05-23T02:38:31.910Z,13.26
2018-05-23T02:40:59.380Z,13.21
2018-05-23T02:43:26.810Z,13.28
2018-05-23T02:45:54.263Z,13.30
2018-05-23T02:48:21.695Z,13.39
2018-05-23T02:50:49.154Z,13.37
2018-05-23T02:53:16.579Z,13.22
2018-05-23T02:55:44.038Z,13.24
2018-05-23T02:58:11.482Z,13.30
2018-05-23T03:00:38.970Z,13.34
2018-05-23T03:03:06.535Z,13.47
2018-05-23T03:05:33.888Z,13.50
2018-05-23T03:08:01.338Z,13.47
2018-05-23T03:10:28.798Z,13.45
2018-05-23T03:12:56.221Z,13.47
2018-05-23T03:15:28.543Z,13.47
2018-05-23T03:17:56.910Z,13.55
2018-05-23T03:20:25.326Z,13.63
2018-05-23T03:22:57.744Z,13.57
2018-05-23T03:34:16.370Z,13.71
2018-05-23T03:37:06.679Z,13.60
2018-05-23T03:39:42.418Z,13.63
2018-05-23T03:56:45.230Z,14.13
2018-05-23T03:59:13.588Z,14.25
2018-05-23T04:01:52.785Z,14.37
2018-05-23T04:04:31.828Z,14.58
2018-05-23T04:09:56.962Z,14.88
2018-05-23T04:12:24.423Z,14.94
2018-05-23T04:14:51.862Z,15.03
2018-05-23T04:17:19.325Z,15.30
2018-05-23T04:19:46.771Z,15.28
2018-05-23T04:22:14.249Z,15.28
2018-05-23T04:24:41.686Z,15.18
2018-05-23T04:27:09.139Z,15.44
2018-05-23T04:29:36.599Z,15.61
2018-05-23T04:32:04.023Z,15.86
2018-05-23T04:34:32.474Z,15.89
2018-05-23T04:36:59.894Z,16.01
2018-05-23T04:39:28.302Z,15.96
2018-05-23T04:41:55.734Z,15.83
2018-05-23T04:44:23.192Z,16.14
2018-05-23T04:46:50.622Z,16.01
2018-05-23T04:49:18.086Z,16.21
2018-05-23T04:51:45.523Z,16.60
2018-05-23T04:54:12.974Z,17.04
2018-05-23T04:56:41.323Z,17.27
2018-05-23T04:59:08.790Z,17.06
2018-05-23T05:01:36.231Z,17.09
2018-05-23T05:04:03.683Z,17.18
2018-05-23T05:06:32.027Z,17.43
2018-05-23T05:08:59.505Z,17.25
2018-05-23T05:11:26.931Z,17.43
2018-05-23T05:13:54.683Z,17.38
2018-05-23T06:38:19.181Z,20.82
2018-05-23T06:40:46.598Z,20.42
2018-05-23T06:43:14.045Z,19.97
2018-05-23T06:45:45.007Z,20.33
2018-05-23T06:48:12.455Z,20.10
2018-05-23T06:50:40.783Z,20.63
2018-05-23T06:53:08.242Z,20.73
2018-05-23T06:55:35.681Z,20.41
2018-05-23T06:58:03.074Z,20.25
2018-05-23T07:00:33.762Z,20.53
2018-05-23T07:03:03.126Z,20.54
2018-05-23T07:05:32.533Z,20.41
2018-05-23T07:08:00.861Z,20.48
2018-05-23T07:10:28.301Z,20.24
2018-05-23T07:12:55.713Z,20.50
2018-05-23T07:15:23.162Z,20.43
2018-05-23T07:17:56.232Z,20.84
2018-05-23T07:20:23.590Z,21.16
2018-05-23T07:22:51.006Z,20.88
2018-05-23T07:25:19.458Z,21.09
2018-05-23T07:27:46.878Z,20.88
2018-05-23T07:30:14.318Z,20.72
2018-05-23T07:32:41.735Z,20.94
2018-05-23T07:35:09.178Z,20.80
2018-05-23T07:37:36.596Z,21.25
2018-05-23T07:40:04.038Z,20.71
2018-05-23T07:42:31.454Z,20.73
2018-05-23T07:44:58.950Z,20.92
2018-05-23T07:47:26.406Z,20.72
2018-05-23T07:50:08.870Z,20.40
2018-05-23T07:52:36.316Z,20.82
2018-05-23T07:55:04.698Z,20.47
2018-05-23T07:57:32.150Z,20.70
2018-05-23T07:59:59.573Z,20.77
2018-05-23T08:02:28.001Z,20.81
2018-05-23T08:04:55.453Z,21.05
2018-05-23T08:07:22.908Z,21.14
2018-05-23T08:09:50.320Z,21.27
2018-05-23T08:12:17.770Z,21.42
2018-05-23T08:14:45.210Z,21.14
2018-05-23T08:17:12.659Z,21.33
2018-05-23T08:19:40.076Z,21.28
2018-05-23T08:22:07.528Z,20.92
2018-05-23T08:24:34.945Z,20.71
2018-05-23T08:27:03.386Z,20.58
2018-05-23T08:29:30.856Z,20.52
2018-05-23T08:31:58.271Z,20.78
2018-05-23T08:34:25.712Z,20.97
2018-05-23T08:36:53.126Z,21.11
2018-05-23T08:39:20.574Z,21.19
2018-05-23T08:41:48.003Z,21.07
2018-05-23T08:44:15.446Z,21.21
2018-05-23T08:46:42.859Z,21.33
2018-05-23T08:49:10.302Z,21.88
2018-05-23T08:51:38.658Z,21.65
2018-05-23T08:54:06.093Z,21.92
2018-05-23T08:56:33.518Z,21.69
2018-05-23T08:59:01.967Z,21.75
2018-05-23T09:01:29.391Z,21.87
2018-05-23T09:03:57.201Z,21.85
2018-05-23T09:06:24.630Z,21.83
2018-05-23T09:08:52.069Z,21.77
2018-05-23T09:11:19.521Z,21.81
2018-05-23T09:13:47.919Z,21.57
2018-05-23T09:16:15.363Z,21.70
2018-05-23T09:18:42.798Z,21.99
2018-05-23T09:21:10.237Z,21.69
2018-05-23T09:23:37.655Z,21.97
2018-05-23T09:26:10.835Z,21.85
2018-05-23T09:28:38.248Z,22.10
2018-05-23T09:31:07.708Z,22.02
2018-05-23T09:33:35.141Z,22.40
2018-05-23T09:36:03.580Z,22.63
2018-05-23T09:38:32.926Z,22.99
2018-05-23T09:41:01.337Z,22.59
2018-05-23T09:43:29.693Z,22.42
2018-05-23T09:45:57.139Z,22.33
2018-05-23T09:48:24.549Z,22.11
2018-05-23T09:50:51.989Z,22.26
2018-05-23T09:53:19.457Z,22.41
2018-05-23T09:55:50.749Z,21.77
2018-05-23T09:58:18.193Z,21.92
2018-05-23T10:00:45.609Z,21.90
2018-05-23T10:03:13.051Z,21.48
2018-05-23T10:05:40.482Z,21.46
2018-05-23T10:08:08.882Z,21.49
2018-05-23T10:10:36.314Z,21.77
2018-05-23T10:13:03.751Z,21.79
2018-05-23T10:15:31.170Z,21.48
2018-05-23T10:17:58.612Z,21.96
2018-05-23T10:20:26.036Z,22.24
2018-05-23T10:22:53.473Z,22.53
2018-05-23T10:25:22.910Z,22.66
2018-05-23T10:27:50.324Z,22.75
2018-05-23T10:30:17.761Z,22.83
2018-05-23T10:32:45.174Z,22.45
2018-05-23T10:35:12.609Z,22.92
2018-05-23T10:37:40.021Z,22.78
2018-05-23T10:40:07.472Z,22.81
2018-05-23T10:42:34.878Z,22.88
2018-05-23T10:45:02.317Z,22.84
2018-05-23T10:47:29.737Z,23.31
2018-05-23T10:49:57.197Z,23.54
2018-05-23T10:52:24.619Z,23.77
2018-05-23T10:54:52.066Z,24.10
2018-05-23T10:57:20.442Z,24.21
2018-05-23T10:59:47.879Z,24.12
2018-05-23T11:02:15.306Z,23.70
2018-05-23T11:04:42.748Z,23.19
2018-05-23T11:07:12.111Z,23.27
2018-05-23T11:09:39.582Z,23.58
2018-05-23T11:12:07.019Z,23.49
2018-05-23T11:14:34.435Z,23.23
2018-05-23T11:17:01.874Z,23.46
2018-05-23T11:19:29.311Z,23.68
2018-05-23T11:21:56.761Z,23.71
2018-05-23T11:24:24.174Z,23.66
2018-05-23T11:26:54.122Z,24.02
2018-05-23T11:29:24.954Z,23.65
2018-05-23T11:31:52.394Z,24.00
2018-05-23T11:34:20.841Z,24.07
2018-05-23T11:36:48.322Z,23.96
2018-05-23T11:39:15.738Z,23.88
2018-05-23T11:41:44.182Z,24.23
2018-05-23T11:44:11.534Z,23.90
2018-05-23T11:46:38.998Z,24.00
2018-05-23T11:49:06.399Z,23.90
2018-05-23T11:51:33.831Z,23.35
2018-05-23T11:54:01.242Z,22.56
2018-05-23T11:56:28.741Z,23.00
2018-05-23T11:58:56.194Z,23.07
2018-05-23T12:01:23.610Z,23.03
2018-05-23T12:03:52.037Z,23.64
2018-05-23T12:06:19.468Z,23.80
2018-05-23T12:08:46.905Z,23.78
2018-05-23T12:11:14.317Z,23.53
2018-05-23T12:13:41.762Z,24.43
2018-05-23T12:16:09.174Z,24.64
2018-05-23T12:18:36.630Z,24.67
2018-05-23T12:21:06.050Z,25.18
2018-05-23T12:23:33.485Z,24.73
2018-05-23T12:26:00.897Z,24.93
2018-05-23T12:28:28.353Z,25.06
2018-05-23T12:30:55.770Z,25.34
2018-05-23T12:33:23.182Z,24.99
2018-05-23T12:35:50.637Z,24.99
2018-05-23T12:38:19.075Z,25.08
2018-05-23T12:40:46.521Z,24.88
2018-05-23T12:43:13.934Z,25.08
2018-05-23T12:45:41.369Z,25.02
2018-05-23T12:48:08.790Z,24.76
2018-05-23T12:50:36.234Z,25.09
2018-05-23T12:53:03.657Z,25.04
2018-05-23T12:55:32.010Z,24.86
2018-05-23T12:57:59.424Z,24.82
2018-05-23T13:00:27.896Z,25.23
2018-05-23T13:02:55.306Z,25.43
2018-05-23T13:05:22.729Z,25.36
2018-05-23T13:07:50.226Z,25.37
2018-05-23T13:10:17.653Z,25.42
2018-05-23T13:12:45.142Z,25.02
2018-05-23T13:15:12.526Z,25.32
2018-05-23T13:17:41.897Z,25.41
2018-05-23T13:20:09.333Z,25.52
2018-05-23T13:22:36.778Z,25.62
2018-05-23T13:25:04.778Z,25.53
2018-05-23T13:29:59.898Z,26.02
2018-05-23T13:32:27.340Z,25.89
2018-05-23T13:34:54.771Z,26.67
2018-05-23T13:37:22.213Z,27.39
2018-05-23T13:39:49.665Z,28.20
2018-05-23T13:42:17.993Z,30.16
2018-05-23T13:44:45.415Z,31.09
2018-05-23T13:47:14.781Z,32.32
2018-05-23T13:49:42.218Z,32.60
2018-05-23T13:52:09.633Z,31.59
2018-05-23T13:54:37.090Z,32.42
2018-05-23T13:57:04.502Z,31.78
2018-05-23T13:59:31.943Z,33.26
2018-05-23T14:01:59.366Z,34.09
2018-05-23T14:04:26.817Z,33.17
2018-05-23T14:06:54.225Z,34.56
2018-05-23T14:09:21.670Z,35.67
2018-05-23T14:11:50.102Z,34.98
2018-05-23T14:14:17.550Z,35.52
2018-05-23T14:16:44.959Z,35.23
2018-05-23T14:19:12.502Z,35.70
2018-05-23T14:21:39.817Z,36.77
2018-05-23T14:24:07.253Z,36.52
2018-05-23T14:26:34.673Z,37.16
2018-05-23T14:29:02.114Z,38.06
2018-05-23T14:31:29.537Z,39.30
2018-05-23T14:33:57.954Z,38.38
2018-05-23T14:36:26.333Z,38.48
2018-05-23T14:38:54.479Z,38.08
2018-05-23T14:41:22.822Z,39.72
2018-05-23T14:43:50.307Z,40.40
2018-05-23T14:46:19.594Z,40.31
2018-05-23T14:48:46.997Z,42.71
2018-05-23T14:51:14.446Z,40.80
2018-05-23T14:53:41.857Z,41.60
2018-05-23T14:56:16.721Z,44.24
2018-05-23T14:58:45.090Z,44.37
2018-05-23T15:01:12.535Z,44.40
2018-05-23T15:03:39.945Z,47.29
2018-05-23T15:06:07.480Z,49.56
2018-05-23T15:08:34.968Z,49.68
2018-05-23T15:11:02.322Z,48.10
2018-05-23T15:13:30.652Z,49.87
2018-05-23T15:15:59.054Z,50.75
2018-05-23T15:18:28.434Z,47.17
2018-05-23T15:20:55.878Z,46.88
2018-05-23T15:23:23.293Z,43.21
2018-05-23T15:25:50.752Z,41.86
2018-05-23T15:28:18.167Z,40.63
2018-05-23T15:30:46.541Z,38.83
2018-05-23T15:33:13.984Z,40.79
2018-05-23T15:35:41.414Z,45.49
2018-05-23T15:38:09.781Z,47.28
2018-05-23T15:40:39.122Z,45.30
2018-05-23T15:43:06.559Z,47.11
2018-05-23T15:45:33.978Z,48.83
2018-05-23T15:48:01.423Z,49.51
2018-05-23T15:50:28.838Z,48.72
2018-05-23T15:52:56.278Z,47.23
2018-05-23T15:55:23.691Z,47.40
2018-05-23T15:57:52.069Z,49.39
2018-05-23T16:00:19.486Z,47.79
2018-05-23T16:02:46.928Z,45.66
2018-05-23T16:05:14.338Z,47.70
2018-05-23T16:07:41.785Z,47.83
2018-05-23T16:10:09.197Z,47.10
2018-05-23T16:12:37.623Z,48.02
2018-05-23T16:15:05.129Z,49.25
2018-05-23T16:17:32.505Z,48.46
2018-05-23T16:19:59.949Z,49.53
2018-05-23T16:22:27.362Z,49.17
2018-05-23T16:24:54.957Z,47.46
2018-05-23T16:27:22.381Z,48.33
2018-05-23T16:29:49.839Z,46.96
2018-05-23T16:32:17.245Z,47.24
2018-05-23T16:34:44.690Z,46.27
2018-05-23T16:37:12.101Z,47.35
2018-05-23T16:39:39.549Z,46.85
2018-05-23T16:42:07.039Z,47.74
2018-05-23T16:44:34.444Z,46.54
2018-05-23T16:47:01.845Z,45.88
2018-05-23T16:49:29.278Z,45.13
2018-05-23T16:51:56.689Z,46.02
2018-05-23T16:54:24.136Z,44.11
2018-05-23T16:56:51.559Z,44.63
2018-05-23T16:59:19.011Z,44.59
2018-05-23T17:01:46.421Z,43.07
2018-05-23T17:04:13.844Z,42.86
2018-05-23T17:06:42.276Z,42.65
2018-05-23T17:09:09.683Z,42.92
2018-05-23T17:11:37.127Z,42.73
2018-05-23T17:14:04.538Z,43.23
2018-05-23T17:16:32.107Z,39.02
2018-05-23T17:18:59.524Z,34.62
2018-05-23T17:21:26.992Z,33.10
2018-05-23T17:23:54.413Z,38.29
2018-05-23T17:26:21.865Z,37.28
2018-05-23T17:28:49.303Z,32.03
2018-05-23T17:31:16.749Z,28.92
2018-05-23T17:33:44.178Z,27.67
2018-05-23T17:36:11.630Z,26.71
2018-05-23T17:38:40.018Z,26.09
2018-05-23T17:41:07.427Z,25.37
2018-05-23T17:43:34.892Z,24.96
2018-05-23T17:46:02.307Z,24.42
2018-05-23T17:48:29.749Z,24.35
2018-05-23T17:50:57.157Z,24.06
2018-05-23T17:53:24.610Z,23.76
2018-05-23T17:55:52.023Z,23.86
2018-05-23T17:58:19.466Z,23.93
2018-05-23T18:00:48.878Z,23.56
2018-05-23T18:03:16.326Z,23.34
2018-05-23T18:05:43.767Z,23.16
2018-05-23T18:08:11.206Z,23.23
2018-05-23T18:10:38.617Z,23.22
2018-05-23T18:13:06.063Z,23.11
2018-05-23T18:15:33.499Z,22.97
2018-05-23T18:18:01.910Z,22.77
2018-05-23T18:20:29.350Z,22.72
2018-05-23T18:22:56.792Z,22.60
2018-05-23T18:25:25.181Z,22.58
2018-05-23T18:28:00.125Z,22.45
2018-05-23T18:30:27.559Z,22.01
2018-05-23T18:32:56.343Z,21.91
2018-05-23T18:35:24.755Z,21.86
2018-05-23T18:37:52.186Z,21.74
2018-05-23T18:40:19.641Z,21.73
2018-05-23T18:42:47.079Z,21.55
2018-05-23T18:45:14.522Z,21.21
2018-05-23T18:47:41.942Z,21.25
2018-05-23T18:50:09.389Z,21.29
2018-05-23T18:52:36.823Z,21.19
2018-05-23T18:55:04.259Z,21.04
2018-05-23T18:57:32.166Z,20.80
2018-05-23T19:00:04.805Z,20.71
2018-05-23T19:02:32.222Z,20.65
2018-05-23T19:04:59.707Z,20.50
2018-05-23T19:07:28.203Z,20.43
2018-05-23T19:09:56.626Z,20.36
2018-05-23T19:12:24.102Z,20.25
2018-05-23T19:14:51.543Z,20.21
2018-05-23T19:17:18.974Z,20.30
2018-05-23T19:19:46.507Z,20.09
2018-05-23T19:22:15.250Z,20.05
2018-05-23T19:24:42.698Z,20.04
2018-05-23T19:27:10.150Z,19.89
2018-05-23T19:29:37.594Z,19.82
2018-05-23T19:32:05.041Z,19.55
2018-05-23T19:34:32.451Z,19.47
2018-05-23T19:36:59.874Z,19.39
2018-05-23T19:39:27.329Z,19.46
2018-05-23T19:41:54.759Z,19.32
2018-05-23T19:44:22.189Z,19.18
2018-05-23T19:46:49.606Z,19.15
2018-05-23T19:49:17.030Z,19.06
2018-05-23T19:51:44.478Z,19.00
2018-05-23T19:54:11.893Z,18.87
2018-05-23T19:56:39.435Z,18.95
2018-05-23T19:59:06.758Z,18.86
2018-05-23T20:01:34.194Z,18.74
2018-05-23T20:04:01.613Z,18.75
2018-05-23T20:06:29.967Z,18.67
2018-05-23T20:08:57.381Z,18.60
2018-05-23T20:11:24.818Z,18.57
2018-05-23T20:13:52.239Z,18.51
2018-05-23T20:16:20.630Z,18.57
2018-05-23T20:18:48.961Z,18.50
2018-05-23T20:21:17.382Z,18.49
2018-05-23T20:23:44.801Z,18.47
2018-05-23T20:26:12.237Z,18.46
2018-05-23T20:28:39.658Z,18.48
2018-05-23T20:31:07.109Z,18.41
2018-05-23T20:33:34.522Z,18.28
2018-05-23T20:36:01.962Z,18.25
2018-05-23T20:38:29.389Z,18.18
2018-05-23T20:40:56.870Z,18.15
2018-05-23T20:43:25.289Z,18.16
2018-05-23T20:45:52.708Z,18.02
2018-05-23T20:48:21.063Z,17.96
2018-05-23T20:50:48.477Z,17.90
2018-05-23T20:53:15.921Z,17.78
2018-05-23T20:55:43.338Z,17.77
2018-05-23T20:58:10.786Z,17.74
2018-05-23T21:00:38.216Z,17.79
2018-05-23T21:03:06.607Z,17.73
2018-05-23T21:05:34.024Z,17.81
2018-05-23T21:08:01.469Z,17.75
2018-05-23T21:10:28.895Z,17.71
2018-05-23T21:12:56.342Z,17.46
2018-05-23T21:15:23.781Z,17.49
2018-05-23T21:17:52.116Z,17.43
2018-05-23T21:20:19.533Z,17.42
2018-05-23T21:22:47.881Z,17.50
2018-05-23T21:25:15.290Z,17.33
2018-05-23T21:27:42.790Z,17.27
2018-05-23T21:30:10.166Z,17.29
2018-05-23T21:32:37.582Z,17.24
2018-05-23T21:35:05.022Z,17.14
2018-05-23T21:37:32.433Z,17.04
2018-05-23T21:39:59.881Z,17.12
2018-05-23T21:42:27.302Z,17.15
2018-05-23T21:44:54.742Z,17.14
2018-05-23T21:47:22.159Z,17.18
2018-05-23T21:49:49.698Z,17.13
2018-05-23T21:52:17.055Z,17.10
2018-05-23T21:54:44.497Z,16.96
2018-05-23T21:57:11.922Z,16.89
2018-05-23T21:59:39.362Z,16.84
2018-05-23T22:02:06.775Z,16.80
2018-05-23T22:04:34.218Z,16.79
2018-05-23T22:07:02.596Z,16.81
2018-05-23T22:09:30.031Z,16.75
2018-05-23T22:11:57.441Z,16.68
2018-05-23T22:14:24.887Z,16.69
2018-05-23T22:16:52.318Z,16.68
2018-05-23T22:19:19.741Z,16.58
2018-05-23T22:21:47.181Z,16.54
2018-05-23T22:24:14.601Z,16.51
2018-05-23T22:26:42.990Z,16.55
2018-05-23T22:29:10.410Z,16.51
2018-05-23T22:31:37.858Z,16.50
2018-05-23T22:34:05.278Z,16.52
2018-05-23T22:36:32.723Z,16.53
2018-05-23T22:39:00.146Z,16.45
2018-05-23T22:41:28.549Z,16.42
2018-05-23T22:43:55.962Z,16.35
2018-05-23T22:46:23.409Z,16.29
2018-05-23T22:48:50.825Z,16.24
2018-05-23T22:51:19.195Z,16.18
2018-05-23T22:53:48.583Z,16.25
2018-05-23T22:56:16.018Z,16.17
2018-05-23T22:58:43.433Z,16.07
2018-05-23T23:01:10.891Z,16.08
2018-05-23T23:03:38.304Z,16.04
2018-05-23T23:06:05.710Z,16.00
2018-05-23T23:08:34.153Z,15.97
2018-05-23T23:11:01.572Z,16.09
2018-05-23T23:13:29.024Z,16.13
2018-05-23T23:15:58.350Z,16.04
2018-05-23T23:18:25.798Z,16.08
2018-05-23T23:20:53.219Z,15.95
2018-05-23T23:23:20.655Z,15.97
2018-05-23T23:25:49.013Z,15.89
2018-05-23T23:28:16.475Z,15.73
2018-05-23T23:30:43.913Z,15.70
2018-05-23T23:33:11.389Z,15.87
2018-05-23T23:35:38.833Z,15.69
2018-05-23T23:38:06.294Z,15.70
2018-05-23T23:40:33.722Z,15.72
2018-05-23T23:43:01.201Z,15.60
2018-05-23T23:45:28.633Z,15.50
2018-05-23T23:47:56.093Z,15.50
2018-05-23T23:50:23.525Z,15.41
2018-05-23T23:52:50.988Z,15.37
2018-05-23T23:55:18.401Z,15.36
2018-05-23T23:57:45.849Z,15.35
